createdAt,value
2023-01-13T00:00:30.560Z,15.10
2023-01-13T00:03:01.646Z,15.40
2023-01-13T00:05:32.737Z,15.20
2023-01-13T00:08:07.742Z,15.30
2023-01-13T00:10:38.899Z,15.30
2023-01-13T00:13:09.903Z,15.40
2023-01-13T00:15:40.948Z,15.90
2023-01-13T00:18:11.969Z,15.60
2023-01-13T00:20:42.920Z,15.80
2023-01-13T00:23:13.916Z,15.70
2023-01-13T00:25:44.947Z,15.60
2023-01-13T00:28:15.948Z,15.50
2023-01-13T00:30:47.003Z,15.30
2023-01-13T00:33:18.320Z,15.70
2023-01-13T00:36:00.294Z,15.70
2023-01-13T00:38:33.917Z,15.90
2023-01-13T00:41:12.079Z,15.90
2023-01-13T00:43:44.070Z,15.90
2023-01-13T00:46:20.602Z,15.90
2023-01-13T00:48:51.885Z,15.70
2023-01-13T00:51:22.891Z,16.00
2023-01-13T00:53:53.998Z,15.90
2023-01-13T00:56:39.819Z,16.60
2023-01-13T00:59:13.606Z,16.00
2023-01-13T01:01:44.784Z,16.70
2023-01-13T01:04:15.921Z,16.10
2023-01-13T01:06:46.934Z,16.40
2023-01-13T01:09:18.345Z,16.60
2023-01-13T01:11:49.361Z,16.80
2023-01-13T01:14:20.408Z,16.90
2023-01-13T01:16:51.414Z,16.50
2023-01-13T01:19:22.506Z,16.00
2023-01-13T01:21:55.100Z,16.70
2023-01-13T01:24:26.251Z,16.60
2023-01-13T01:26:57.269Z,15.90
2023-01-13T01:29:28.286Z,16.00
2023-01-13T01:32:04.057Z,16.30
2023-01-13T01:34:35.805Z,16.60
2023-01-13T01:37:06.871Z,16.80
2023-01-13T01:39:37.896Z,16.60
2023-01-13T01:42:35.953Z,15.90
2023-01-13T01:45:21.479Z,16.30
2023-01-13T01:48:01.401Z,16.40
2023-01-13T01:50:34.158Z,16.40
2023-01-13T01:53:15.184Z,15.80
2023-01-13T01:55:46.334Z,16.30
2023-01-13T01:58:39.321Z,15.80
2023-01-13T02:01:12.430Z,15.90
2023-01-13T02:03:54.670Z,15.90
2023-01-13T02:06:26.090Z,16.20
2023-01-13T02:08:59.162Z,16.20
2023-01-13T02:11:54.572Z,15.80
2023-01-13T02:14:29.425Z,16.20
2023-01-13T02:17:21.961Z,16.40
2023-01-13T02:20:23.668Z,15.80
2023-01-13T02:23:59.100Z,16.20
2023-01-13T02:27:16.114Z,15.50
2023-01-13T02:30:56.105Z,15.90
2023-01-13T02:33:47.957Z,15.50
2023-01-13T02:36:39.773Z,16.00
2023-01-13T02:39:14.694Z,16.20
2023-01-13T02:42:26.218Z,16.10
2023-01-13T02:45:14.035Z,15.90
2023-01-13T02:47:50.230Z,16.00
2023-01-13T02:50:27.893Z,16.00
2023-01-13T02:53:09.927Z,15.80
2023-01-13T02:55:47.133Z,16.00
2023-01-13T02:58:23.410Z,15.70
2023-01-13T03:00:54.821Z,16.00
2023-01-13T03:03:25.973Z,15.90
2023-01-13T03:06:12.705Z,16.00
2023-01-13T03:08:48.281Z,15.50
2023-01-13T03:11:20.921Z,15.60
2023-01-13T03:14:13.076Z,15.70
2023-01-13T03:16:59.601Z,15.90
2023-01-13T03:20:04.120Z,15.70
2023-01-13T03:22:44.995Z,15.60
2023-01-13T03:25:32.988Z,15.40
2023-01-13T03:28:29.779Z,15.40
2023-01-13T03:31:10.095Z,15.50
2023-01-13T03:34:18.198Z,15.40
2023-01-13T03:36:53.338Z,15.50
2023-01-13T03:39:34.974Z,15.30
2023-01-13T03:42:16.053Z,15.40
2023-01-13T03:44:58.614Z,15.50
2023-01-13T03:47:55.233Z,15.60
2023-01-13T03:50:33.896Z,15.70
2023-01-13T03:53:11.564Z,15.80
2023-01-13T03:55:48.723Z,15.90
2023-01-13T03:58:26.540Z,15.80
2023-01-13T04:01:13.631Z,15.60
2023-01-13T04:04:06.559Z,15.80
2023-01-13T04:07:01.718Z,15.50
2023-01-13T04:09:36.716Z,15.30
2023-01-13T04:12:19.201Z,15.30
2023-01-13T04:14:51.173Z,15.50
2023-01-13T04:17:23.914Z,15.20
2023-01-13T04:19:54.821Z,15.30
2023-01-13T04:22:25.748Z,15.30
2023-01-13T04:24:56.624Z,15.10
2023-01-13T04:27:27.480Z,15.40
2023-01-13T04:29:58.356Z,15.30
2023-01-13T04:32:29.227Z,15.20
2023-01-13T04:35:00.187Z,15.00
2023-01-13T04:37:31.106Z,15.30
2023-01-13T04:40:02.080Z,15.30
2023-01-13T04:42:32.961Z,15.60
2023-01-13T04:45:04.286Z,15.40
2023-01-13T04:47:35.374Z,15.40
2023-01-13T04:50:06.645Z,15.40
2023-01-13T04:52:38.715Z,15.40
2023-01-13T04:55:10.559Z,15.60
2023-01-13T04:57:41.512Z,15.90
2023-01-13T05:00:16.364Z,15.80
2023-01-13T05:02:49.990Z,15.70
2023-01-13T05:05:23.881Z,15.80
2023-01-13T05:07:55.873Z,15.70
2023-01-13T05:10:27.510Z,16.00
2023-01-13T05:13:16.752Z,16.10
2023-01-13T05:16:22.880Z,16.00
2023-01-13T05:18:53.797Z,15.40
2023-01-13T05:21:43.111Z,15.60
2023-01-13T05:24:32.290Z,15.60
2023-01-13T05:27:03.193Z,15.50
2023-01-13T05:29:34.221Z,15.40
2023-01-13T05:32:07.784Z,15.90
2023-01-13T05:34:38.701Z,15.90
2023-01-13T05:37:11.138Z,15.90
2023-01-13T05:40:01.338Z,15.70
2023-01-13T05:42:50.538Z,15.70
2023-01-13T05:45:22.852Z,15.90
2023-01-13T05:47:53.831Z,15.80
2023-01-13T05:50:25.417Z,15.60
2023-01-13T05:52:56.288Z,16.00
2023-01-13T05:55:27.191Z,16.20
2023-01-13T05:57:58.130Z,15.80
2023-01-13T06:00:29.109Z,16.00
2023-01-13T06:03:00.037Z,16.20
2023-01-13T06:05:31.560Z,16.20
2023-01-13T06:08:05.607Z,15.80
2023-01-13T06:10:37.222Z,16.20
2023-01-13T06:13:08.095Z,15.70
2023-01-13T06:15:38.991Z,15.70
2023-01-13T06:18:09.983Z,15.60
2023-01-13T06:20:40.877Z,16.00
2023-01-13T06:23:12.230Z,15.80
2023-01-13T06:26:22.228Z,16.00
2023-01-13T06:28:53.257Z,16.20
2023-01-13T06:31:25.305Z,16.00
2023-01-13T06:34:04.014Z,16.10
2023-01-13T06:36:46.608Z,16.30
2023-01-13T06:39:22.023Z,16.10
2023-01-13T06:42:13.648Z,16.00
2023-01-13T06:44:45.794Z,16.20
2023-01-13T06:47:17.758Z,16.10
2023-01-13T06:49:54.308Z,16.40
2023-01-13T06:52:30.550Z,16.20
2023-01-13T06:55:01.948Z,15.50
2023-01-13T06:57:33.512Z,15.80
2023-01-13T07:00:05.229Z,16.30
2023-01-13T07:02:36.722Z,16.30
2023-01-13T07:05:08.297Z,15.80
2023-01-13T07:07:39.622Z,16.00
2023-01-13T07:10:13.681Z,16.20
2023-01-13T07:13:03.488Z,16.20
2023-01-13T07:15:35.268Z,16.40
2023-01-13T07:18:06.357Z,15.70
2023-01-13T07:20:37.307Z,15.30
2023-01-13T07:23:08.223Z,15.80
2023-01-13T07:25:39.231Z,15.80
2023-01-13T07:28:10.164Z,15.70
2023-01-13T07:30:41.091Z,15.80
2023-01-13T07:33:12.010Z,16.50
2023-01-13T07:35:42.974Z,16.20
2023-01-13T07:38:15.265Z,16.20
2023-01-13T07:40:46.283Z,16.00
2023-01-13T07:43:32.060Z,16.70
2023-01-13T07:46:05.987Z,16.00
2023-01-13T07:48:37.872Z,15.90
2023-01-13T07:51:11.963Z,16.30
2023-01-13T07:53:42.924Z,16.40
2023-01-13T07:56:14.024Z,15.40
2023-01-13T07:58:50.255Z,15.80
2023-01-13T08:01:21.492Z,16.00
2023-01-13T08:03:52.484Z,15.60
2023-01-13T08:06:23.425Z,15.70
2023-01-13T08:08:54.748Z,15.90
2023-01-13T08:11:25.640Z,15.90
2023-01-13T08:13:57.783Z,15.60
2023-01-13T08:16:28.674Z,16.10
2023-01-13T08:18:59.783Z,16.10
2023-01-13T08:21:33.703Z,16.30
2023-01-13T08:24:04.910Z,16.10
2023-01-13T08:26:36.033Z,15.60
2023-01-13T08:29:06.959Z,15.90
2023-01-13T08:31:37.844Z,16.10
2023-01-13T08:34:08.837Z,15.90
2023-01-13T08:36:39.719Z,15.70
2023-01-13T08:39:10.621Z,16.10
2023-01-13T08:41:55.516Z,15.60
2023-01-13T08:44:29.467Z,15.60
2023-01-13T08:47:00.815Z,15.40
2023-01-13T08:49:33.261Z,14.90
2023-01-13T08:52:04.823Z,15.20
2023-01-13T08:54:38.271Z,15.00
2023-01-13T08:57:09.289Z,14.60
2023-01-13T08:59:40.240Z,14.30
2023-01-13T09:02:21.077Z,14.30
2023-01-13T09:04:52.700Z,14.10
2023-01-13T09:07:23.654Z,14.10
2023-01-13T09:09:56.811Z,13.90
2023-01-13T09:12:47.078Z,13.20
2023-01-13T09:15:21.909Z,13.10
2023-01-13T09:17:52.867Z,13.50
2023-01-13T09:20:23.798Z,13.20
2023-01-13T09:22:54.654Z,12.80
2023-01-13T09:25:25.563Z,13.30
2023-01-13T09:27:57.449Z,13.00
2023-01-13T09:30:28.643Z,13.00
2023-01-13T09:33:22.929Z,13.20
2023-01-13T09:35:59.301Z,13.60
2023-01-13T09:38:30.216Z,13.70
2023-01-13T09:41:01.173Z,14.10
2023-01-13T09:43:56.516Z,14.20
2023-01-13T09:46:44.658Z,13.70
2023-01-13T09:49:31.349Z,14.10
2023-01-13T09:52:27.049Z,14.20
2023-01-13T09:55:34.706Z,14.40
2023-01-13T09:58:19.471Z,14.80
2023-01-13T10:01:02.033Z,14.40
2023-01-13T10:03:35.321Z,14.10
2023-01-13T10:06:16.933Z,14.60
2023-01-13T10:08:49.230Z,14.40
2023-01-13T10:11:42.651Z,13.90
2023-01-13T10:14:34.389Z,13.80
2023-01-13T10:17:23.615Z,13.90
2023-01-13T10:20:33.303Z,13.80
2023-01-13T10:23:47.446Z,13.80
2023-01-13T10:26:44.034Z,13.70
2023-01-13T10:29:28.378Z,13.40
2023-01-13T10:32:00.937Z,13.70
2023-01-13T10:34:31.933Z,13.30
2023-01-13T10:37:08.945Z,13.10
2023-01-13T10:39:46.719Z,13.00
2023-01-13T10:42:22.151Z,13.10
2023-01-13T10:44:56.024Z,13.60
2023-01-13T10:47:36.805Z,13.80
2023-01-13T10:50:13.918Z,13.60
2023-01-13T10:53:01.699Z,13.80
2023-01-13T10:55:37.951Z,13.50
2023-01-13T10:58:18.760Z,13.60
2023-01-13T11:00:59.305Z,13.60
2023-01-13T11:03:45.321Z,13.50
2023-01-13T11:06:28.471Z,13.40
2023-01-13T11:08:59.606Z,12.90
2023-01-13T11:11:44.361Z,12.90
2023-01-13T11:14:41.431Z,12.50
2023-01-13T11:17:35.606Z,13.00
2023-01-13T11:20:20.536Z,12.90
2023-01-13T11:22:55.895Z,13.00
2023-01-13T11:25:33.855Z,13.30
2023-01-13T11:28:21.418Z,13.00
2023-01-13T11:31:21.493Z,13.00
2023-01-13T11:34:08.101Z,13.40
2023-01-13T11:36:43.054Z,12.90
2023-01-13T11:39:21.699Z,12.70
2023-01-13T11:42:26.816Z,12.90
2023-01-13T11:45:07.641Z,12.50
2023-01-13T11:47:39.228Z,12.90
2023-01-13T11:50:59.172Z,12.60
2023-01-13T11:53:57.054Z,13.10
2023-01-13T11:57:15.312Z,13.20
2023-01-13T12:00:13.629Z,13.20
2023-01-13T12:03:41.630Z,13.40
2023-01-13T12:06:24.605Z,14.00
2023-01-13T12:09:36.735Z,14.20
2023-01-13T12:12:34.789Z,14.60
2023-01-13T12:15:21.318Z,14.40
2023-01-13T12:18:29.087Z,14.10
2023-01-13T12:21:06.432Z,14.60
2023-01-13T12:23:44.270Z,14.30
2023-01-13T12:26:17.080Z,14.90
2023-01-13T12:29:28.582Z,15.10
2023-01-13T12:32:03.028Z,14.10
2023-01-13T12:34:34.012Z,14.90
2023-01-13T12:37:23.547Z,14.40
2023-01-13T12:40:03.294Z,14.20
2023-01-13T12:43:23.616Z,14.40
2023-01-13T12:46:23.198Z,14.20
2023-01-13T12:48:57.301Z,13.80
2023-01-13T12:51:38.102Z,13.80
2023-01-13T12:54:30.935Z,14.20
2023-01-13T12:57:16.854Z,14.20
2023-01-13T12:59:59.791Z,14.20
2023-01-13T13:02:34.510Z,14.00
2023-01-13T13:05:14.559Z,13.80
2023-01-13T13:07:50.119Z,14.20
2023-01-13T13:10:45.598Z,14.70
2023-01-13T13:13:45.399Z,14.20
2023-01-13T13:16:29.531Z,14.50
2023-01-13T13:19:18.647Z,14.50
2023-01-13T13:22:27.873Z,14.60
2023-01-13T13:25:04.431Z,15.40
2023-01-13T13:27:37.872Z,15.00
2023-01-13T13:30:19.810Z,15.10
2023-01-13T13:33:57.115Z,14.80
2023-01-13T13:36:42.035Z,15.10
2023-01-13T13:39:44.012Z,15.20
2023-01-13T13:42:48.496Z,15.10
2023-01-13T13:45:41.398Z,15.60
2023-01-13T13:48:25.320Z,15.60
2023-01-13T13:51:04.130Z,15.60
2023-01-13T13:53:39.632Z,15.60
2023-01-13T13:56:24.920Z,15.70
2023-01-13T13:58:56.219Z,14.70
2023-01-13T14:01:38.123Z,14.80
2023-01-13T14:04:17.634Z,14.60
2023-01-13T14:07:04.963Z,14.10
2023-01-13T14:09:47.077Z,14.10
2023-01-13T14:12:24.641Z,14.20
2023-01-13T14:14:57.574Z,13.80
2023-01-13T14:17:30.558Z,13.40
2023-01-13T14:20:09.601Z,12.70
2023-01-13T14:22:40.738Z,12.40
2023-01-13T14:25:29.355Z,11.70
2023-01-13T14:28:13.691Z,11.80
2023-01-13T14:30:45.166Z,11.90
2023-01-13T14:33:21.334Z,11.90
2023-01-13T14:36:53.269Z,12.10
2023-01-13T14:39:34.034Z,12.30
2023-01-13T14:42:10.208Z,11.80
2023-01-13T14:44:47.138Z,11.90
2023-01-13T14:47:28.614Z,12.20
2023-01-13T14:50:16.173Z,12.40
2023-01-13T14:52:50.689Z,12.40
2023-01-13T14:55:33.868Z,12.50
2023-01-13T14:58:28.472Z,12.40
2023-01-13T15:01:29.828Z,12.10
2023-01-13T15:04:26.881Z,11.90
2023-01-13T15:06:59.457Z,12.10
2023-01-13T15:09:41.081Z,12.50
2023-01-13T15:12:30.504Z,12.50
2023-01-13T15:15:26.246Z,12.30
2023-01-13T15:17:57.345Z,12.40
2023-01-13T15:20:29.536Z,12.40
2023-01-13T15:23:01.366Z,12.40
2023-01-13T15:25:39.649Z,12.40
2023-01-13T15:28:20.878Z,12.60
2023-01-13T15:31:00.705Z,12.30
2023-01-13T15:33:32.093Z,12.70
2023-01-13T15:36:03.349Z,12.70
2023-01-13T15:38:34.242Z,12.70
2023-01-13T15:41:05.300Z,12.30
2023-01-13T15:43:54.764Z,12.70
2023-01-13T15:46:37.977Z,12.50
2023-01-13T15:49:37.413Z,12.50
2023-01-13T15:52:24.877Z,13.20
2023-01-13T15:54:58.798Z,12.50
2023-01-13T15:57:33.328Z,12.70
2023-01-13T16:00:18.148Z,13.10
2023-01-13T16:02:50.162Z,13.40
2023-01-13T16:05:21.282Z,13.30
2023-01-13T16:07:52.297Z,12.90
2023-01-13T16:10:26.648Z,12.90
2023-01-13T16:13:01.692Z,12.80
2023-01-13T16:15:33.417Z,12.90
2023-01-13T16:18:05.650Z,13.10
2023-01-13T16:20:36.812Z,13.80
2023-01-13T16:23:07.750Z,13.50
2023-01-13T16:25:39.819Z,13.50
2023-01-13T16:28:24.365Z,13.70
2023-01-13T16:30:55.293Z,13.60
2023-01-13T16:33:26.183Z,13.00
2023-01-13T16:36:11.730Z,13.40
2023-01-13T16:38:43.712Z,13.40
2023-01-13T16:41:14.877Z,13.20
2023-01-13T16:43:46.939Z,12.90
2023-01-13T16:46:19.436Z,13.30
2023-01-13T16:48:52.997Z,13.40
2023-01-13T16:51:24.867Z,13.60
2023-01-13T16:53:55.903Z,13.90
2023-01-13T16:56:30.544Z,14.00
2023-01-13T16:59:17.041Z,13.80
2023-01-13T17:01:48.155Z,13.90
2023-01-13T17:04:22.105Z,13.90
2023-01-13T17:07:08.270Z,13.70
2023-01-13T17:09:41.692Z,13.50
2023-01-13T17:12:12.658Z,14.00
2023-01-13T17:14:43.585Z,13.40
2023-01-13T17:17:26.657Z,13.90
2023-01-13T17:20:03.588Z,14.10
2023-01-13T17:22:34.672Z,14.00
2023-01-13T17:25:07.124Z,13.80
2023-01-13T17:27:38.360Z,13.10
2023-01-13T17:30:14.592Z,13.30
2023-01-13T17:32:45.463Z,13.00
2023-01-13T17:35:19.420Z,12.80
2023-01-13T17:37:53.969Z,13.10
2023-01-13T17:40:31.003Z,12.70
2023-01-13T17:43:04.898Z,12.90
2023-01-13T17:45:41.493Z,12.80
2023-01-13T17:48:13.273Z,12.80
2023-01-13T17:50:48.287Z,12.90
2023-01-13T17:53:20.220Z,13.30
2023-01-13T17:55:53.690Z,13.70
2023-01-13T17:58:24.640Z,13.30
2023-01-13T18:00:55.829Z,13.20
2023-01-13T18:03:26.840Z,13.30
2023-01-13T18:06:04.497Z,14.10
2023-01-13T18:08:35.592Z,13.50
2023-01-13T18:11:09.347Z,13.40
2023-01-13T18:13:43.355Z,13.20
2023-01-13T18:16:18.549Z,13.20
2023-01-13T18:18:52.007Z,13.10
2023-01-13T18:21:50.125Z,13.00
2023-01-13T18:24:39.213Z,13.00
2023-01-13T18:27:19.421Z,12.70
2023-01-13T18:29:56.248Z,12.70
2023-01-13T18:32:32.828Z,12.60
2023-01-13T18:35:10.117Z,13.20
2023-01-13T18:37:42.386Z,12.90
2023-01-13T18:40:17.054Z,13.00
2023-01-13T18:42:54.943Z,13.10
2023-01-13T18:45:30.185Z,13.20
2023-01-13T18:48:05.886Z,13.10
2023-01-13T18:50:36.817Z,12.70
2023-01-13T18:53:08.077Z,13.20
2023-01-13T18:55:47.629Z,12.70
2023-01-13T18:58:20.410Z,12.90
2023-01-13T19:01:01.113Z,12.50
2023-01-13T19:03:32.280Z,12.60
2023-01-13T19:06:07.155Z,12.20
2023-01-13T19:08:38.225Z,12.60
2023-01-13T19:11:12.248Z,12.90
2023-01-13T19:13:46.717Z,13.00
2023-01-13T19:16:21.587Z,12.80
2023-01-13T19:18:52.471Z,12.80
2023-01-13T19:21:25.742Z,12.60
2023-01-13T19:24:02.924Z,12.60
2023-01-13T19:26:36.664Z,12.60
2023-01-13T19:29:10.312Z,12.40
2023-01-13T19:31:44.405Z,12.40
2023-01-13T19:34:16.098Z,12.80
2023-01-13T19:36:47.012Z,12.80
2023-01-13T19:39:18.222Z,12.70
2023-01-13T19:42:14.691Z,12.80
2023-01-13T19:45:04.394Z,12.70
2023-01-13T19:47:38.895Z,12.30
2023-01-13T19:50:10.719Z,12.30
2023-01-13T19:52:44.960Z,12.50
2023-01-13T19:55:16.039Z,12.70
2023-01-13T19:57:47.235Z,12.80
2023-01-13T20:00:20.791Z,12.90
2023-01-13T20:02:53.581Z,12.90
2023-01-13T20:05:26.264Z,13.20
2023-01-13T20:08:00.381Z,12.80
2023-01-13T20:10:31.400Z,12.80
2023-01-13T20:13:03.324Z,12.90
2023-01-13T20:15:34.731Z,13.00
2023-01-13T20:18:05.864Z,12.60
2023-01-13T20:20:37.882Z,12.10
2023-01-13T20:23:12.256Z,12.80
2023-01-13T20:25:43.286Z,12.90
2023-01-13T20:28:14.292Z,13.00
2023-01-13T20:30:45.296Z,13.40
2023-01-13T20:33:16.966Z,12.80
2023-01-13T20:36:00.311Z,13.20
2023-01-13T20:38:40.507Z,13.20
2023-01-13T20:44:15.099Z,13.60
2023-01-13T20:46:57.849Z,13.40
2023-01-13T20:49:29.618Z,13.00
2023-01-13T20:52:00.685Z,12.70
2023-01-13T20:54:35.197Z,12.90
2023-01-13T20:57:09.795Z,12.90
2023-01-13T20:59:43.895Z,13.10
2023-01-13T21:02:18.990Z,12.50
2023-01-13T21:04:50.282Z,12.50
2023-01-13T21:07:21.302Z,12.70
2023-01-13T21:09:52.702Z,13.00
2023-01-13T21:12:51.361Z,12.50
2023-01-13T21:15:22.999Z,12.40
2023-01-13T21:18:14.621Z,12.20
2023-01-13T21:20:45.517Z,12.20
2023-01-13T21:23:16.614Z,12.10
2023-01-13T21:25:50.698Z,12.50
2023-01-13T21:28:21.772Z,12.80
2023-01-13T21:30:55.304Z,12.80
2023-01-13T21:33:26.382Z,12.70
2023-01-13T21:35:57.582Z,12.20
2023-01-13T21:38:30.321Z,12.00
2023-01-13T21:41:07.463Z,11.90
2023-01-13T21:43:57.149Z,12.80
2023-01-13T21:46:46.689Z,13.00
2023-01-13T21:49:17.646Z,12.60
2023-01-13T21:51:50.954Z,12.70
2023-01-13T21:54:22.419Z,12.30
2023-01-13T21:56:53.308Z,12.30
2023-01-13T21:59:24.232Z,12.40
2023-01-13T22:02:24.820Z,11.40
2023-01-13T22:04:57.258Z,11.00
2023-01-13T22:07:28.885Z,10.70
2023-01-13T22:09:59.893Z,10.80
2023-01-13T22:12:30.875Z,10.60
2023-01-13T22:15:05.985Z,10.80
2023-01-13T22:17:37.254Z,10.80
2023-01-13T22:20:13.370Z,10.80
2023-01-13T22:22:44.404Z,11.00
2023-01-13T22:25:19.288Z,10.80
2023-01-13T22:27:57.764Z,10.90
2023-01-13T22:30:33.829Z,11.40
2023-01-13T22:33:04.761Z,11.40
2023-01-13T22:35:35.664Z,11.30
2023-01-13T22:38:06.633Z,11.80
2023-01-13T22:40:37.731Z,12.00
2023-01-13T22:43:08.767Z,12.10
2023-01-13T22:45:39.697Z,12.30
2023-01-13T22:48:10.695Z,12.30
2023-01-13T22:50:41.667Z,12.40
2023-01-13T22:53:12.617Z,12.50
2023-01-13T22:55:44.445Z,12.40
2023-01-13T22:58:15.403Z,12.30
2023-01-13T23:00:46.945Z,12.20
2023-01-13T23:03:19.028Z,12.10
2023-01-13T23:05:57.072Z,11.90
2023-01-13T23:08:28.004Z,11.90
2023-01-13T23:11:05.258Z,11.90
2023-01-13T23:13:42.271Z,11.90
2023-01-13T23:16:21.098Z,11.80
2023-01-13T23:18:52.229Z,11.80
2023-01-13T23:21:27.236Z,11.60
2023-01-13T23:23:59.001Z,11.50
2023-01-13T23:26:37.933Z,11.60
2023-01-13T23:29:13.230Z,11.90
2023-01-13T23:31:47.725Z,12.10
2023-01-13T23:34:18.581Z,12.10
2023-01-13T23:36:52.752Z,12.40
2023-01-13T23:39:24.722Z,11.70
2023-01-13T23:41:55.862Z,11.80
2023-01-13T23:44:29.852Z,12.10
2023-01-13T23:47:00.914Z,12.40
2023-01-13T23:49:31.926Z,12.30
2023-01-13T23:52:03.283Z,12.10
2023-01-13T23:54:34.218Z,12.50
2023-01-13T23:57:05.205Z,12.40
2023-01-13T23:59:38.558Z,12.50
